Time;durP1;ratioP1;P1;durP2;ratioP2;P2;SDS_P1;SDS_P2;PMS_P1;PMS_P2;Temp;Humidity;BMP_temperature;BMP_pressure;BME280_temperature;BME280_humidity;BME280_pressure;Samples;Min_cycle;Max_cycle;Signal;HPM_P1;HPM_P2
2021/04/30 00:02:11;;;;;;;17.15;11.68;;;;;;;12.58;68.68;98659.96;1737224;83;21221;-63
2021/04/30 00:04:38;;;;;;;16.10;10.53;;;;;;;12.58;68.70;98632.78;1737110;82;21047;-61
2021/04/30 00:07:06;;;;;;;15.60;11.22;;;;;;;12.60;68.73;98628.47;1737134;82;21205;-61
2021/04/30 00:09:36;;;;;;;14.93;11.48;;;;;;;12.60;68.80;98641.41;1737211;82;21193;-62
2021/04/30 00:12:05;;;;;;;19.80;10.50;;;;;;;12.59;68.88;98630.61;1737016;83;21043;-61
2021/04/30 00:14:34;;;;;;;16.12;11.10;;;;;;;12.57;68.95;98638.39;1736953;82;21051;-63
2021/04/30 00:17:02;;;;;;;15.83;11.55;;;;;;;12.58;69.07;98628.45;1736920;82;21047;-67
2021/04/30 00:19:30;;;;;;;14.68;10.75;;;;;;;12.59;69.06;98609.90;1737152;82;21288;-62
2021/04/30 00:21:58;;;;;;;17.12;11.30;;;;;;;12.61;69.08;98645.70;1737067;82;21100;-62
2021/04/30 00:24:26;;;;;;;15.55;11.03;;;;;;;12.60;69.05;98645.30;1737165;82;21079;-62
2021/04/30 00:26:54;;;;;;;18.37;10.85;;;;;;;12.62;69.14;98612.50;1737181;82;21553;-62
2021/04/30 00:29:21;;;;;;;15.90;10.95;;;;;;;12.63;69.09;98642.69;1737143;82;21047;-58
2021/04/30 00:31:50;;;;;;;18.10;11.57;;;;;;;12.64;69.09;98644.40;1737278;82;21186;-58
2021/04/30 00:34:17;;;;;;;15.85;10.65;;;;;;;12.65;69.09;98638.81;1737036;82;21246;-57
2021/04/30 00:36:45;;;;;;;16.10;11.05;;;;;;;12.66;69.12;98623.70;1737105;82;21233;-60
2021/04/30 00:39:13;;;;;;;12.20;9.23;;;;;;;12.65;69.10;98640.11;1737186;82;21075;-61
2021/04/30 00:41:42;;;;;;;13.55;10.28;;;;;;;12.66;69.02;98634.91;1736969;82;21048;-61
2021/04/30 00:44:10;;;;;;;13.43;10.82;;;;;;;12.66;69.06;98618.08;1737121;82;21031;-60
2021/04/30 00:46:38;;;;;;;14.50;10.43;;;;;;;12.66;69.05;98635.34;1736969;82;21217;-62
2021/04/30 00:49:06;;;;;;;15.18;10.88;;;;;;;12.66;68.89;98640.09;1737046;82;21044;-62
2021/04/30 00:51:34;;;;;;;16.37;10.93;;;;;;;12.67;68.91;98626.30;1737145;82;21264;-61
2021/04/30 00:54:02;;;;;;;15.13;11.55;;;;;;;12.67;68.90;98626.30;1737088;82;21056;-60
2021/04/30 00:56:33;;;;;;;15.08;11.08;;;;;;;12.68;68.90;98603.41;1736845;82;21051;-59
2021/04/30 00:59:01;;;;;;;21.82;11.60;;;;;;;12.67;68.88;98618.53;1737051;82;21190;-61
2021/04/30 01:01:29;;;;;;;12.50;10.28;;;;;;;12.66;68.91;98611.61;1736944;83;21067;-60
2021/04/30 01:03:57;;;;;;;14.55;11.18;;;;;;;12.66;68.89;98630.17;1737149;83;21110;-61
2021/04/30 01:06:24;;;;;;;13.25;9.88;;;;;;;12.64;69.01;98624.98;1736889;82;21198;-60
2021/04/30 01:08:52;;;;;;;13.50;9.28;;;;;;;12.62;69.00;98617.68;1737092;82;21178;-61
2021/04/30 01:11:20;;;;;;;15.75;10.53;;;;;;;12.62;69.15;98620.27;1737113;82;21071;-63
2021/04/30 01:13:49;;;;;;;13.68;9.53;;;;;;;12.64;69.16;98619.80;1737220;82;21075;-64
2021/04/30 01:16:16;;;;;;;14.20;10.43;;;;;;;12.65;69.04;98624.58;1737203;83;21063;-61
2021/04/30 01:18:47;;;;;;;13.70;10.25;;;;;;;12.67;69.00;98600.81;1736884;82;21189;-62
2021/04/30 01:21:16;;;;;;;13.30;9.38;;;;;;;12.67;69.00;98605.59;1736857;83;21051;-58
2021/04/30 01:23:49;;;;;;;17.75;11.20;;;;;;;12.65;69.08;98599.55;1736872;83;21615;-63
2021/04/30 01:26:18;;;;;;;15.05;10.70;;;;;;;12.64;69.07;98630.16;1737015;82;21088;-60
2021/04/30 01:28:47;;;;;;;15.03;10.32;;;;;;;12.62;69.23;98608.63;1736881;82;21197;-59
2021/04/30 01:31:17;;;;;;;15.65;10.72;;;;;;;12.60;69.30;98603.88;1737120;83;21044;-60
2021/04/30 01:33:54;;;;;;;18.07;10.63;;;;;;;12.54;69.48;98622.88;1737088;82;21185;-60
2021/04/30 01:36:22;;;;;;;15.08;10.90;;;;;;;12.53;69.55;98611.22;1737081;82;21224;-58
2021/04/30 01:38:49;;;;;;;15.10;11.28;;;;;;;12.50;69.72;98622.89;1737063;82;21186;-62
2021/04/30 01:41:23;;;;;;;15.63;10.53;;;;;;;12.49;69.75;98616.86;1736895;83;21209;-62
2021/04/30 01:43:51;;;;;;;17.27;11.28;;;;;;;12.49;69.81;98618.55;1737161;82;21189;-60
2021/04/30 01:46:19;;;;;;;16.00;9.93;;;;;;;12.48;69.88;98606.48;1724663;83;21580;-60
2021/04/30 01:48:47;;;;;;;17.17;10.75;;;;;;;12.46;70.11;98593.98;1718727;83;21113;-62
2021/04/30 01:51:15;;;;;;;17.30;11.15;;;;;;;12.46;70.12;98587.52;1718705;82;21047;-60
2021/04/30 01:53:43;;;;;;;15.58;10.50;;;;;;;12.44;70.13;98590.53;1718700;83;21189;-62
2021/04/30 01:56:13;;;;;;;17.92;11.30;;;;;;;12.43;70.27;98599.17;1718859;82;21185;-60
2021/04/30 01:58:42;;;;;;;15.68;11.57;;;;;;;12.39;70.38;98598.33;1718404;83;21058;-61
2021/04/30 02:01:11;;;;;;;15.23;10.28;;;;;;;12.34;70.53;98598.33;1718864;83;21027;-60
2021/04/30 02:03:39;;;;;;;16.05;11.63;;;;;;;12.32;70.76;98595.32;1718730;83;21063;-65
2021/04/30 02:06:07;;;;;;;16.85;11.88;;;;;;;12.26;70.91;98583.67;1718811;82;21196;-64
2021/04/30 02:08:34;;;;;;;13.90;11.33;;;;;;;12.23;70.99;98588.86;1718717;82;21065;-64
2021/04/30 02:11:05;;;;;;;15.90;10.30;;;;;;;12.21;71.09;98584.11;1718978;82;21229;-62
2021/04/30 02:13:33;;;;;;;15.68;10.60;;;;;;;12.20;71.20;98583.70;1718714;82;21043;-61
2021/04/30 02:16:01;;;;;;;15.75;10.00;;;;;;;12.17;71.33;98576.80;1718721;83;21214;-63
2021/04/30 02:18:29;;;;;;;13.58;10.72;;;;;;;12.16;71.34;98584.11;1718890;82;21211;-59
2021/04/30 02:20:56;;;;;;;13.98;10.20;;;;;;;12.14;71.49;98554.39;1718856;83;21189;-57
2021/04/30 02:23:24;;;;;;;13.98;10.68;;;;;;;12.15;71.47;98573.34;1718861;82;21217;-59
2021/04/30 02:25:52;;;;;;;14.95;10.53;;;;;;;12.12;71.57;98575.52;1718744;83;21193;-56
2021/04/30 02:28:21;;;;;;;17.05;12.23;;;;;;;12.09;71.63;98561.73;1718724;83;21054;-57
2021/04/30 02:30:49;;;;;;;20.62;11.73;;;;;;;12.07;71.68;98575.09;1718682;83;21205;-56
2021/04/30 02:33:16;;;;;;;14.98;10.88;;;;;;;12.03;71.78;98583.27;1718796;83;21043;-57
2021/04/30 02:35:48;;;;;;;20.32;12.10;;;;;;;12.02;72.00;98578.12;1718859;83;21575;-56
2021/04/30 02:38:18;;;;;;;16.85;10.75;;;;;;;12.02;72.14;98591.05;1718768;82;21591;-60
2021/04/30 02:40:51;;;;;;;16.80;10.32;;;;;;;12.03;72.06;98573.36;1718638;82;21209;-56
2021/04/30 02:43:22;;;;;;;15.53;10.40;;;;;;;12.05;72.06;98582.84;1718839;82;21283;-58
2021/04/30 02:45:51;;;;;;;15.60;10.90;;;;;;;12.07;71.99;98591.47;1724554;82;21095;-60
2021/04/30 02:48:27;;;;;;;15.75;10.75;;;;;;;12.13;71.84;98581.54;1737056;83;21080;-61
2021/04/30 02:50:54;;;;;;;17.55;10.82;;;;;;;12.15;71.68;98592.75;1737106;82;21189;-60
2021/04/30 02:53:22;;;;;;;16.50;10.85;;;;;;;12.14;71.67;98581.55;1736855;82;21055;-62
2021/04/30 02:55:50;;;;;;;15.98;11.40;;;;;;;12.13;71.57;98580.24;1737085;83;21193;-59
2021/04/30 02:58:18;;;;;;;13.58;10.53;;;;;;;12.14;71.62;98594.48;1736785;82;21201;-60
2021/04/30 03:00:47;;;;;;;17.57;11.20;;;;;;;12.13;71.69;98574.63;1736754;82;21198;-60
2021/04/30 03:03:15;;;;;;;19.80;10.68;;;;;;;12.12;71.57;98577.23;1737025;82;21036;-60
2021/04/30 03:05:44;;;;;;;13.10;9.33;;;;;;;12.12;71.59;98569.05;1736980;82;21051;-61
2021/04/30 03:08:12;;;;;;;13.65;9.93;;;;;;;12.16;71.59;98581.53;1736978;82;21186;-60
2021/04/30 03:10:39;;;;;;;13.78;10.15;;;;;;;12.15;71.63;98573.34;1736984;83;21235;-58
2021/04/30 03:13:07;;;;;;;13.75;9.50;;;;;;;12.15;71.43;98580.67;1737000;82;21185;-64
2021/04/30 03:15:34;;;;;;;12.90;9.13;;;;;;;12.16;71.48;98564.71;1737080;82;21202;-60
2021/04/30 03:18:02;;;;;;;18.40;9.63;;;;;;;12.16;71.47;98566.00;1737004;83;21209;-64
2021/04/30 03:20:30;;;;;;;15.35;10.18;;;;;;;12.15;71.26;98583.70;1737142;82;21028;-61
2021/04/30 03:22:58;;;;;;;15.35;10.53;;;;;;;12.16;71.34;98582.41;1737180;82;21206;-64
2021/04/30 03:25:25;;;;;;;12.20;9.40;;;;;;;12.14;71.18;98575.52;1736980;82;21055;-61
2021/04/30 03:27:53;;;;;;;14.75;9.38;;;;;;;12.17;71.21;98581.97;1736814;83;21189;-62
2021/04/30 03:30:21;;;;;;;11.03;8.20;;;;;;;12.18;71.06;98566.88;1737030;82;21043;-62
2021/04/30 03:32:49;;;;;;;11.97;8.58;;;;;;;12.19;70.95;98581.95;1736799;82;21051;-59
2021/04/30 03:35:18;;;;;;;13.20;9.10;;;;;;;12.21;70.75;98579.80;1736867;82;21015;-61
2021/04/30 03:37:47;;;;;;;14.25;9.60;;;;;;;12.27;70.60;98573.77;1736784;82;21063;-63
2021/04/30 03:40:16;;;;;;;12.65;9.20;;;;;;;12.27;70.23;98559.55;1736716;82;21086;-61
2021/04/30 03:42:45;;;;;;;17.87;9.83;;;;;;;12.21;70.50;98571.17;1736745;82;21032;-62
2021/04/30 03:45:14;;;;;;;13.78;9.20;;;;;;;12.17;70.59;98566.45;1736979;82;21046;-62
2021/04/30 03:47:41;;;;;;;14.18;8.60;;;;;;;12.19;70.31;98588.02;1736822;82;21067;-60
2021/04/30 03:50:11;;;;;;;11.97;8.85;;;;;;;12.21;70.28;98578.50;1737041;83;21020;-61
2021/04/30 03:52:40;;;;;;;13.38;9.38;;;;;;;12.27;70.04;98584.12;1736772;82;21044;-61
2021/04/30 03:55:09;;;;;;;15.08;8.55;;;;;;;12.33;69.84;98588.83;1737224;82;21189;-61
2021/04/30 03:57:36;;;;;;;13.15;8.43;;;;;;;12.36;69.53;98577.20;1737104;82;21529;-63
2021/04/30 04:00:06;;;;;;;17.82;8.75;;;;;;;12.36;69.38;98576.31;1737212;82;21019;-60
2021/04/30 04:02:46;;;;;;;11.95;7.90;;;;;;;12.45;69.29;98565.09;1870516;76;22576;-61
2021/04/30 04:05:14;;;;;;;12.35;7.67;;;;;;;12.41;69.02;98568.11;1827542;77;21123;-63
2021/04/30 04:07:42;;;;;;;14.73;7.70;;;;;;;12.42;68.94;98573.73;1827782;77;21276;-63
2021/04/30 04:10:11;;;;;;;12.93;7.55;;;;;;;12.43;68.75;98561.64;1827639;78;21126;-61
2021/04/30 04:12:40;;;;;;;13.78;8.28;;;;;;;12.45;68.63;98555.59;1827732;78;21284;-62
2021/04/30 04:15:09;;;;;;;12.18;8.23;;;;;;;12.53;68.45;98573.69;1827618;77;21106;-62
2021/04/30 04:17:36;;;;;;;11.20;7.30;;;;;;;12.56;68.15;98547.79;1827733;78;21354;-62
2021/04/30 04:20:06;;;;;;;8.95;7.62;;;;;;;12.59;67.97;98572.36;1827651;78;21280;-62
2021/04/30 04:22:33;;;;;;;13.50;8.60;;;;;;;12.64;67.92;98568.03;1827801;77;21264;-62
2021/04/30 04:25:02;;;;;;;16.37;8.60;;;;;;;12.73;67.60;98564.12;1827812;77;21269;-59
2021/04/30 04:27:30;;;;;;;13.22;7.83;;;;;;;12.81;67.22;98540.34;1827731;77;21267;-62
2021/04/30 04:29:58;;;;;;;12.93;7.58;;;;;;;12.86;67.08;98566.66;1827789;77;21284;-62
2021/04/30 04:32:26;;;;;;;11.57;7.92;;;;;;;12.91;66.94;98558.44;1827503;78;21280;-61
2021/04/30 04:34:54;;;;;;;13.20;7.80;;;;;;;13.03;66.85;98568.30;1827508;78;21312;-61
2021/04/30 04:37:21;;;;;;;13.03;8.00;;;;;;;13.13;66.62;98566.53;1827821;78;21261;-62
2021/04/30 04:39:49;;;;;;;10.23;7.55;;;;;;;13.25;66.02;98543.14;1827515;77;21094;-61
2021/04/30 04:42:17;;;;;;;13.68;8.53;;;;;;;13.42;65.61;98544.77;1827678;78;21126;-63
2021/04/30 04:44:44;;;;;;;12.63;8.03;;;;;;;13.55;65.21;98548.98;1827831;77;21265;-62
2021/04/30 04:47:12;;;;;;;12.15;8.75;;;;;;;13.63;64.79;98536.81;1827806;78;21276;-64
2021/04/30 04:49:40;;;;;;;12.58;8.15;;;;;;;13.76;64.54;98561.35;1827885;78;21264;-65
2021/04/30 04:52:07;;;;;;;12.30;8.30;;;;;;;13.86;64.27;98543.54;1827706;78;21091;-71
2021/04/30 04:54:36;;;;;;;11.70;7.80;;;;;;;13.95;63.94;98539.58;1827784;78;21150;-64
2021/04/30 04:57:06;;;;;;;13.32;7.33;;;;;;;14.07;63.62;98548.98;1827591;78;21130;-67
2021/04/30 04:59:34;;;;;;;9.58;7.45;;;;;;;14.20;63.37;98560.10;1827141;78;21316;-60
2021/04/30 05:02:02;;;;;;;13.70;7.78;;;;;;;14.27;62.78;98557.84;1827749;78;21299;-61
2021/04/30 05:04:31;;;;;;;12.95;7.47;;;;;;;14.24;62.83;98555.28;1813076;78;21098;-61
2021/04/30 05:06:58;;;;;;;11.88;7.62;;;;;;;14.18;62.75;98555.36;1811189;78;21375;-59
2021/04/30 05:09:27;;;;;;;13.93;7.97;;;;;;;14.20;62.88;98557.51;1809887;78;21155;-61
2021/04/30 05:11:56;;;;;;;13.50;7.80;;;;;;;14.37;62.65;98569.84;1810439;78;21120;-61
2021/04/30 05:14:24;;;;;;;13.30;8.70;;;;;;;14.60;61.83;98563.58;1809919;77;21098;-62
2021/04/30 05:16:53;;;;;;;15.25;7.97;;;;;;;14.70;61.43;98574.27;1807831;78;21132;-63
2021/04/30 05:19:21;;;;;;;14.47;9.00;;;;;;;14.77;61.20;98568.13;1827340;77;21676;-64
2021/04/30 05:21:49;;;;;;;16.07;7.95;;;;;;;14.85;61.10;98564.99;1827389;77;21135;-64
2021/04/30 05:24:17;;;;;;;11.38;8.35;;;;;;;14.89;61.03;98564.09;1827227;78;21126;-63
2021/04/30 05:26:45;;;;;;;15.05;8.33;;;;;;;14.91;60.93;98562.34;1827298;78;21147;-61
2021/04/30 05:29:15;;;;;;;13.20;8.23;;;;;;;14.86;61.06;98545.95;1827434;77;21120;-62
2021/04/30 05:31:42;;;;;;;11.78;7.95;;;;;;;14.82;61.24;98555.95;1827460;77;21690;-62
2021/04/30 05:34:10;;;;;;;13.10;8.43;;;;;;;14.78;61.32;98552.95;1827402;78;21126;-62
2021/04/30 05:36:38;;;;;;;14.70;9.33;;;;;;;14.73;61.46;98555.63;1827436;78;21138;-61
2021/04/30 05:39:06;;;;;;;15.05;8.63;;;;;;;14.62;61.86;98552.73;1827029;78;21268;-62
2021/04/30 05:41:34;;;;;;;15.75;9.05;;;;;;;14.51;62.17;98548.94;1811015;78;21145;-66
2021/04/30 05:44:02;;;;;;;11.08;8.53;;;;;;;14.46;62.38;98547.69;1806685;78;21283;-64
2021/04/30 05:46:30;;;;;;;14.25;9.50;;;;;;;14.29;62.97;98532.73;1794995;78;21155;-64
2021/04/30 05:48:58;;;;;;;11.00;7.78;;;;;;;14.20;63.35;98499.12;1820361;78;21134;-61
2021/04/30 05:51:25;;;;;;;15.90;8.03;;;;;;;14.23;63.38;98526.33;1827461;77;21162;-63
2021/04/30 05:53:53;;;;;;;15.98;8.53;;;;;;;14.30;63.28;98534.47;1821078;78;21119;-66
2021/04/30 05:56:23;;;;;;;13.72;8.53;;;;;;;14.38;63.22;98539.13;1740253;82;21110;-63
2021/04/30 05:58:51;;;;;;;13.55;8.13;;;;;;;14.57;62.95;98535.05;1755617;81;21196;-63
2021/04/30 06:01:18;;;;;;;16.80;8.33;;;;;;;14.81;62.13;98546.45;1753258;81;21299;-66
2021/04/30 06:03:46;;;;;;;14.55;8.83;;;;;;;14.98;61.63;98540.59;1743711;82;21362;-65
2021/04/30 06:06:14;;;;;;;13.32;7.47;;;;;;;15.15;60.98;98555.08;1748885;82;21332;-66
2021/04/30 06:08:42;;;;;;;15.60;8.23;;;;;;;15.32;60.62;98549.20;1771009;79;21312;-66
2021/04/30 06:11:10;;;;;;;12.13;8.65;;;;;;;15.68;59.72;98545.61;1747627;81;21194;-66
2021/04/30 06:13:39;;;;;;;10.00;7.12;;;;;;;15.98;58.52;98533.00;1744065;80;21089;-65
2021/04/30 06:16:07;;;;;;;13.80;7.65;;;;;;;16.09;58.00;98539.31;1751320;81;21171;-64
2021/04/30 06:18:35;;;;;;;13.30;8.20;;;;;;;16.50;57.34;98547.63;1741118;82;21129;-67
2021/04/30 06:21:04;;;;;;;13.00;8.38;;;;;;;17.23;55.64;98562.66;1773748;80;21248;-65
2021/04/30 06:23:31;;;;;;;13.48;8.13;;;;;;;17.60;54.63;98549.59;1744174;80;21271;-66
2021/04/30 06:25:59;;;;;;;12.85;7.95;;;;;;;17.80;53.93;98542.63;1728613;82;21252;-65
2021/04/30 06:28:26;;;;;;;10.93;8.08;;;;;;;17.64;53.52;98543.88;1749299;81;21163;-63
2021/04/30 06:30:56;;;;;;;11.00;7.87;;;;;;;17.09;54.67;98536.42;1743414;82;21110;-66
2021/04/30 06:33:24;;;;;;;15.38;8.33;;;;;;;16.56;56.09;98535.77;1756703;80;21732;-65
2021/04/30 06:35:52;;;;;;;17.30;8.08;;;;;;;16.30;57.15;98526.33;1746365;81;21109;-66
2021/04/30 06:38:21;;;;;;;14.40;8.28;;;;;;;16.07;58.09;98515.89;1743704;81;21171;-66
2021/04/30 06:40:49;;;;;;;11.95;7.95;;;;;;;15.86;59.07;98538.41;1759149;80;21184;-66
2021/04/30 06:43:17;;;;;;;17.85;8.65;;;;;;;15.90;59.20;98545.27;1761682;80;21149;-67
2021/04/30 06:45:45;;;;;;;13.78;7.65;;;;;;;16.04;59.06;98544.59;1757214;80;21358;-66
2021/04/30 06:48:13;;;;;;;13.22;7.42;;;;;;;16.38;58.51;98547.41;1744322;81;21295;-66
2021/04/30 06:50:40;;;;;;;15.50;7.50;;;;;;;16.81;57.22;98547.89;1739658;81;21212;-65
2021/04/30 06:53:08;;;;;;;12.20;7.55;;;;;;;16.88;56.88;98561.66;1744219;81;21259;-67
2021/04/30 06:55:35;;;;;;;12.90;7.60;;;;;;;17.02;56.48;98527.05;1743467;82;21132;-66
2021/04/30 06:58:03;;;;;;;10.93;7.53;;;;;;;17.19;55.91;98523.19;1740585;82;21129;-66
2021/04/30 07:00:31;;;;;;;15.83;7.33;;;;;;;17.84;54.52;98537.75;1739194;81;21252;-66
2021/04/30 07:02:59;;;;;;;11.73;8.00;;;;;;;18.71;52.72;98541.52;1733126;82;21272;-66
2021/04/30 07:05:26;;;;;;;11.12;7.15;;;;;;;19.51;50.64;98542.58;1792439;79;21224;-66
2021/04/30 07:07:57;;;;;;;13.32;7.17;;;;;;;20.62;48.20;98549.36;1804699;77;21205;-66
2021/04/30 07:10:25;;;;;;;11.70;6.40;;;;;;;21.87;45.03;98553.66;1784416;79;21564;-66
2021/04/30 07:12:54;;;;;;;12.78;6.53;;;;;;;23.04;43.03;98552.55;1795423;78;21148;-67
2021/04/30 07:15:21;;;;;;;10.70;7.12;;;;;;;23.77;40.16;98552.63;1790460;79;21115;-67
2021/04/30 07:17:49;;;;;;;10.18;6.55;;;;;;;22.96;40.99;98547.61;1794119;79;21263;-66
2021/04/30 07:20:17;;;;;;;11.55;6.17;;;;;;;22.07;42.70;98554.14;1797214;79;21127;-66
2021/04/30 07:22:45;;;;;;;10.05;6.10;;;;;;;21.20;44.46;98543.23;1799307;79;21109;-66
2021/04/30 07:25:13;;;;;;;11.93;6.87;;;;;;;21.21;44.84;98540.99;1790209;79;21126;-65
2021/04/30 07:27:41;;;;;;;9.15;6.30;;;;;;;21.56;44.39;98533.52;1785350;79;21540;-67
2021/04/30 07:30:10;;;;;;;10.03;6.58;;;;;;;21.60;44.30;98545.59;1782640;79;21149;-66
2021/04/30 07:32:38;;;;;;;9.68;6.65;;;;;;;21.59;44.36;98546.52;1792599;79;22139;-66
2021/04/30 07:35:06;;;;;;;11.93;8.23;;;;;;;21.53;44.39;98538.91;1721150;82;21158;-67
2021/04/30 07:37:34;;;;;;;15.50;7.83;;;;;;;21.15;44.85;98539.47;1792701;79;21111;-66
2021/04/30 07:40:04;;;;;;;11.75;7.22;;;;;;;21.02;45.54;98543.48;1780259;79;21186;-67
2021/04/30 07:42:34;;;;;;;10.03;6.92;;;;;;;21.16;45.46;98537.69;1798814;78;21123;-67
2021/04/30 07:45:03;;;;;;;8.90;6.30;;;;;;;21.80;44.00;98552.20;1741825;82;21691;-66
2021/04/30 07:47:31;;;;;;;9.78;7.30;;;;;;;21.49;44.60;98534.69;1795181;79;21184;-67
2021/04/30 07:49:59;;;;;;;11.90;6.90;;;;;;;21.16;45.45;98543.78;1801461;79;21285;-67
2021/04/30 07:52:26;;;;;;;8.88;6.20;;;;;;;21.41;45.51;98541.09;1795783;79;21162;-68
2021/04/30 07:54:53;;;;;;;10.15;7.05;;;;;;;22.51;43.37;98532.13;1796972;79;21222;-68
2021/04/30 07:57:21;;;;;;;11.33;6.58;;;;;;;23.61;41.29;98533.59;1781293;77;21164;-62
2021/04/30 07:59:49;;;;;;;16.30;5.78;;;;;;;24.44;39.57;98536.46;1786625;79;21131;-63
2021/04/30 08:02:16;;;;;;;10.32;5.15;;;;;;;24.05;39.33;98523.09;1785771;79;21168;-62
2021/04/30 08:04:44;;;;;;;9.80;5.62;;;;;;;23.82;39.90;98518.52;1780540;79;21241;-63
2021/04/30 08:07:11;;;;;;;12.85;6.53;;;;;;;24.11;39.37;98524.56;1791610;79;21138;-67
2021/04/30 08:09:39;;;;;;;9.53;5.50;;;;;;;24.46;38.54;98517.02;1793442;79;21312;-59
2021/04/30 08:12:08;;;;;;;7.87;5.00;;;;;;;24.80;38.03;98520.48;1780747;79;21293;-65
2021/04/30 08:14:39;;;;;;;10.55;5.20;;;;;;;25.25;37.55;98536.56;1804998;79;21148;-67
2021/04/30 08:17:06;;;;;;;12.75;5.90;;;;;;;25.41;36.94;98526.82;1793003;79;21172;-67
2021/04/30 08:19:34;;;;;;;11.53;6.55;;;;;;;25.30;37.31;98529.23;1775976;79;21186;-66
2021/04/30 08:22:02;;;;;;;9.65;5.42;;;;;;;24.40;39.04;98512.05;1792953;79;21300;-66
2021/04/30 08:24:30;;;;;;;8.10;5.42;;;;;;;24.21;39.67;98512.61;1783106;79;21152;-67
2021/04/30 08:26:58;;;;;;;13.30;5.33;;;;;;;24.44;39.51;98512.25;1810563;79;21164;-65
2021/04/30 08:29:26;;;;;;;8.05;5.70;;;;;;;24.57;39.26;98509.84;1809105;79;21154;-67
2021/04/30 08:31:54;;;;;;;11.33;5.60;;;;;;;24.93;38.91;98512.73;1798191;77;21181;-66
2021/04/30 08:34:22;;;;;;;12.23;5.87;;;;;;;25.22;38.36;98504.57;1795762;78;21142;-67
2021/04/30 08:36:52;;;;;;;10.90;6.03;;;;;;;25.06;38.47;98486.06;1787334;78;21125;-66
2021/04/30 08:39:20;;;;;;;10.15;5.25;;;;;;;24.96;38.71;98503.80;1795948;79;21150;-66
2021/04/30 08:41:49;;;;;;;10.00;5.22;;;;;;;24.49;39.33;98484.34;1780813;79;21346;-67
2021/04/30 08:44:17;;;;;;;9.50;5.37;;;;;;;24.12;40.13;98496.81;1792928;79;21325;-65
2021/04/30 08:46:45;;;;;;;9.63;5.95;;;;;;;23.93;40.61;98496.05;1793410;79;21580;-66
2021/04/30 08:49:13;;;;;;;7.72;4.80;;;;;;;23.23;42.01;98512.19;1776632;79;21703;-66
2021/04/30 08:51:41;;;;;;;8.55;4.85;;;;;;;22.76;43.13;98488.47;1803661;79;21259;-66
2021/04/30 08:54:09;;;;;;;12.98;5.72;;;;;;;22.93;42.97;98510.06;1801821;79;21139;-65
2021/04/30 08:56:44;;;;;;;14.23;5.80;;;;;;;23.12;42.47;98492.49;1777293;79;21619;-66
2021/04/30 08:59:07;;;;;;;9.18;5.17;;;;;;;23.38;42.09;98490.38;1776665;79;21236;-65
2021/04/30 09:01:34;;;;;;;10.45;6.28;;;;;;;23.22;42.47;98499.96;1804789;79;21280;-68
2021/04/30 09:04:06;;;;;;;12.33;6.90;;;;;;;23.01;42.90;98494.80;1785583;79;21217;-65
2021/04/30 09:06:41;;;;;;;10.08;5.85;;;;;;;22.84;43.47;98489.44;1729794;82;21162;-67
2021/04/30 09:09:17;;;;;;;12.05;5.78;;;;;;;22.18;44.67;98473.52;1791487;78;21131;-66
2021/04/30 09:11:52;;;;;;;13.03;5.83;;;;;;;21.83;45.63;98474.60;1794021;79;21117;-67
2021/04/30 09:14:33;;;;;;;8.68;5.50;;;;;;;21.94;45.70;98485.11;1790278;79;21134;-67
2021/04/30 09:17:15;;;;;;;11.73;6.70;;;;;;;21.65;46.44;98489.80;1721377;82;21333;-65
2021/04/30 09:19:57;;;;;;;13.45;7.00;;;;;;;21.65;46.44;98489.80;1795851;79;21162;-67
2021/04/30 09:22:31;;;;;;;9.38;5.78;;;;;;;20.94;48.37;98448.46;1795888;78;21596;-64
2021/04/30 09:25:03;;;;;;;9.73;5.58;;;;;;;20.92;48.85;98474.77;1789627;79;21119;-67
2021/04/30 09:27:42;;;;;;;;;;;;;;;21.07;48.62;98469.85;1810224;79;21147;-67
2021/04/30 09:30:31;;;;;;;12.18;6.50;;;;;;;20.99;48.86;98461.82;1782152;79;20137;-66
2021/04/30 09:33:17;;;;;;;8.93;6.15;;;;;;;21.01;49.12;98469.17;1796528;79;21265;-66
2021/04/30 09:35:52;;;;;;;9.78;6.45;;;;;;;20.99;49.14;98450.02;1795022;77;21141;-69
2021/04/30 09:38:24;;;;;;;9.73;6.22;;;;;;;20.80;49.57;98451.64;1796021;77;21585;-67
2021/04/30 09:41:08;;;;;;;9.10;6.08;;;;;;;20.80;49.57;98451.64;1787761;79;21811;-68
2021/04/30 09:43:49;;;;;;;8.75;5.90;;;;;;;20.89;49.11;98461.78;1790462;79;21917;-68
2021/04/30 09:46:37;;;;;;;11.33;6.22;;;;;;;20.97;48.75;98439.19;1791735;79;21151;-68
2021/04/30 09:49:11;;;;;;;10.45;6.60;;;;;;;20.94;48.64;98457.21;1741214;82;21701;-66
2021/04/30 09:51:54;;;;;;;10.18;5.62;;;;;;;21.01;48.41;98453.44;1796380;79;21333;-66
2021/04/30 09:54:26;;;;;;;16.02;6.25;;;;;;;20.95;48.32;98445.79;1793426;79;21130;-67
2021/04/30 09:57:23;;;;;;;12.53;5.92;;;;;;;20.90;48.11;98439.88;1724374;81;21174;-65
2021/04/30 10:00:11;;;;;;;11.18;5.70;;;;;;;20.78;48.35;98441.20;1797600;79;21269;-65
2021/04/30 10:02:45;;;;;;;10.93;5.78;;;;;;;20.66;48.57;98440.81;1796675;78;21160;-67
2021/04/30 10:05:21;;;;;;;13.28;6.55;;;;;;;20.71;48.60;98440.18;1779470;78;21170;-67
2021/04/30 10:07:49;;;;;;;9.00;6.17;;;;;;;20.83;48.15;98434.93;1768079;80;21157;-67
2021/04/30 10:10:22;;;;;;;11.63;5.83;;;;;;;20.88;48.05;98429.89;1777634;79;21240;-66
2021/04/30 10:12:55;;;;;;;10.53;6.60;;;;;;;20.94;47.89;98439.28;1782618;78;21316;-71
2021/04/30 10:15:25;;;;;;;9.55;6.80;;;;;;;20.89;47.89;98430.31;1772358;78;21817;-68
2021/04/30 10:17:59;;;;;;;10.82;6.05;;;;;;;20.79;48.30;98410.61;1778108;79;21271;-70
2021/04/30 10:20:27;;;;;;;10.03;5.83;;;;;;;20.79;48.30;98410.61;1778666;80;21201;-69
2021/04/30 10:22:57;;;;;;;10.43;6.28;;;;;;;20.90;48.09;98428.06;1794516;79;21607;-72
2021/04/30 10:25:28;;;;;;;8.80;5.80;;;;;;;21.15;47.52;98425.78;1781643;80;21276;-72
2021/04/30 10:28:01;;;;;;;14.03;5.72;;;;;;;21.40;46.88;98425.20;1793483;80;21324;-71
2021/04/30 10:30:54;;;;;;;10.40;5.90;;;;;;;21.59;46.28;98412.61;1794203;80;21139;-72
2021/04/30 10:33:31;;;;;;;7.95;5.10;;;;;;;21.45;46.41;98415.83;1768296;80;21150;-68
2021/04/30 10:36:07;;;;;;;12.98;6.17;;;;;;;21.42;46.58;98426.43;1772530;80;21113;-68
2021/04/30 10:38:49;;;;;;;13.08;5.92;;;;;;;21.34;46.33;98401.78;1793974;78;21279;-71
2021/04/30 10:41:37;;;;;;;13.10;5.22;;;;;;;21.13;47.37;98415.34;1794309;78;21587;-71
2021/04/30 10:44:23;;;;;;;9.48;5.37;;;;;;;21.23;46.96;98388.27;1794169;78;21123;-68
2021/04/30 10:47:07;;;;;;;8.90;5.78;;;;;;;21.23;46.96;98388.27;1777219;80;21303;-70
2021/04/30 10:49:37;;;;;;;10.45;4.97;;;;;;;21.33;46.79;98414.52;1793945;78;21162;-69
2021/04/30 10:52:17;;;;;;;9.98;5.15;;;;;;;21.28;46.53;98370.55;1789573;80;21174;-69
2021/04/30 10:55:04;;;;;;;10.90;5.55;;;;;;;21.23;46.75;98367.27;1779850;80;21319;-69
2021/04/30 10:57:55;;;;;;;13.78;5.10;;;;;;;21.09;46.99;98393.22;1780611;80;21275;-67
2021/04/30 11:00:39;;;;;;;11.43;5.12;;;;;;;21.10;47.23;98398.41;1779329;80;21154;-70
2021/04/30 11:03:23;;;;;;;14.65;6.35;;;;;;;21.03;47.76;98391.23;1779646;80;21307;-67
2021/04/30 11:06:00;;;;;;;12.20;5.72;;;;;;;21.03;47.76;98391.23;1780509;80;21252;-67
2021/04/30 11:08:54;;;;;;;12.18;5.08;;;;;;;21.09;47.51;98392.78;1781059;80;21607;-70
2021/04/30 11:11:37;;;;;;;10.15;4.55;;;;;;;21.08;46.39;98388.44;1779598;80;21548;-69
2021/04/30 11:14:24;;;;;;;7.33;4.50;;;;;;;21.08;46.39;98388.44;1780894;79;21575;-66
2021/04/30 11:16:54;;;;;;;9.98;4.87;;;;;;;21.05;47.20;98388.56;1770380;80;21553;-72
2021/04/30 11:19:26;;;;;;;8.35;4.87;;;;;;;21.28;46.72;98378.43;1777327;80;21216;-66
2021/04/30 11:21:55;;;;;;;;;;;;;;;21.44;46.77;98382.13;1780952;80;21571;-72
2021/04/30 11:24:32;;;;;;;7.80;5.25;;;;;;;21.64;46.35;98353.70;1752992;82;20139;-68
2021/04/30 11:27:23;;;;;;;8.83;4.78;;;;;;;21.77;45.85;98369.78;1738546;82;21589;-68
2021/04/30 11:29:52;;;;;;;13.43;4.97;;;;;;;21.85;45.74;98374.70;1738469;82;21293;-70
2021/04/30 11:32:27;;;;;;;7.47;4.83;;;;;;;21.96;45.31;98361.95;1719959;82;21173;-68
2021/04/30 11:34:59;;;;;;;12.93;6.30;;;;;;;22.09;45.22;98379.33;1715953;82;21553;-70
2021/04/30 11:37:30;;;;;;;9.58;6.12;;;;;;;22.39;45.26;98377.11;1737997;82;21179;-68
2021/04/30 11:40:18;;;;;;;9.40;5.62;;;;;;;22.55;44.02;98375.92;1724348;82;21142;-68